This is the latest recevied weather packets stored in our database for station/object TA2EE-10. If no packets are shown the sender has not sent any weather packets the latest 10 day(s).
| Time | Temp. | Humidity | Pressure | Rain* | Wind** | Luminosity | Snow |
|---|---|---|---|---|---|---|---|
| 1787677456 | 35° C | 22% | 914 hPa | - | - | 0 W/m² | - |
| 1787675334 | 35.56° C | 21% | 914 hPa | - | - | 0 W/m² | - |
| 1787673212 | 35.56° C | 21% | 914 hPa | - | - | 0 W/m² | - |
| 1787671090 | 35.56° C | 23% | 914 hPa | - | - | 0 W/m² | - |
| 1787668968 | 36.67° C | 22% | 914 hPa | - | - | 0 W/m² | - |
| 1787666846 | 37.22° C | 22% | 914 hPa | - | - | 0 W/m² | - |
| 1787664724 | 37.78° C | 22% | 914 hPa | - | - | 0 W/m² | - |
| 1787662602 | 38.33° C | 20% | 914 hPa | - | - | 0 W/m² | - |
| 1787660480 | 38.89° C | 20% | 915 hPa | - | - | 0 W/m² | - |
| 1787658358 | 38.89° C | 20% | 915 hPa | - | - | 0 W/m² | - |
| 1787658331 | 38.33° C | 20% | 915 hPa | - | - | 0 W/m² | - |
| 1787658288 | 38.33° C | 20% | 915 hPa | - | - | 0 W/m² | - |
| 1787656166 | 38.33° C | 20% | 915 hPa | - | - | 0 W/m² | - |
| 1787654044 | 38.33° C | 21% | 915 hPa | - | - | 0 W/m² | - |
| 1787651921 | 37.78° C | 22% | 916 hPa | - | - | 0 W/m² | - |
| 1787649799 | 36.11° C | 23% | 916 hPa | - | - | 0 W/m² | - |
| 1787647677 | 35° C | 27% | 916 hPa | - | - | 0 W/m² | - |
| 1787645554 | 35° C | 28% | 916 hPa | - | - | 0 W/m² | - |
| 1787643432 | 35.56° C | 27% | 916 hPa | - | - | 0 W/m² | - |
| 1787641310 | 36.67° C | 26% | 917 hPa | - | - | 0 W/m² | - |
| 1787639187 | 36.67° C | 26% | 917 hPa | - | - | 0 W/m² | - |
| 1787637065 | 37.22° C | 25% | 917 hPa | - | - | 0 W/m² | - |
| 1787634943 | 33.89° C | 29% | 917 hPa | - | - | 0 W/m² | - |
| 1787632821 | 31.67° C | 33% | 917 hPa | - | - | 0 W/m² | - |
| 1787630699 | 31.67° C | 33% | 916 hPa | - | - | 0 W/m² | - |
* Rain since midnight (hover to see other rain measurements)
** Current wind speed in m/s (hover to see current wind gust speed)